CheckWX is a tool to help pilots better visualize weather data.  It is not intended as a substitute for an official pre-flight weather briefing.

17:17:02 UTC

LUKK METAR
Chişinău International Airport
Chişinău, Moldova
Current

17 mins ago

LUKK 181700Z 34004KT CAVOK 25/09 Q1016 R26/D NOSIG
Observed
Aug-18 @ 17:00 UTC
Wind
  • 340° at 4 KTS
Visibility
10,000+ meters
Flight Rules
VFR
Cloud Levels
  • Clear skies
Temperature
25°C / 77°F
Dewpoint
C / 48°F
Humidity
36%
Altimeter
30" Hg
Pressure
1015.92 hPa
Previous

47 mins ago

LUKK 181630Z 36003KT 340V040 CAVOK 27/08 Q1015 R26/D NOSIG
Observed
Aug-18 @ 16:30 UTC
Wind
  • 360° at 3 KTS
Visibility
10,000+ meters
Flight Rules
VFR
Cloud Levels
  • Clear skies
Temperature
27°C / 81°F
Dewpoint
C / 46°F
Humidity
30%
Altimeter
29.97" Hg
Pressure
1014.92 hPa
Previous

1 hour ago

LUKK 181600Z 29006KT 270V330 CAVOK 27/09 Q1015 R08/D NOSIG
Observed
Aug-18 @ 16:00 UTC
Wind
  • 290° at 6 KTS
Visibility
10,000+ meters
Flight Rules
VFR
Cloud Levels
  • Clear skies
Temperature
27°C / 81°F
Dewpoint
C / 48°F
Humidity
32%
Altimeter
29.97" Hg
Pressure
1014.92 hPa